首页
METAR-TAF:

METAR-TAF

机场 :

希奥利艾机场

希奥利艾, 立陶宛

纬度: 55-53-38N, 经度: 023-23-42E, 海拔: 135米

当前天气观测

该预报发布于15分钟前的01:50 UTC
风速8节,风向西
温度 16°C
湿度 100%
气压 1016 hPa
能见度10公里或以上
少量云层高于700英尺
阴天层高于1400英尺

METAR: EYSA 220150Z 27008KT 9999 FEW007 OVC014 16/16 Q1016 GRN NOSIG

时间: 05:05 (02:05 UTC)

预报

该预报发布于2小时和55分钟前的23:10 UTC
预报有效从22日的 00点(UTC)到 22日的 09点(UTC)
风速8节,风向西
能見度: 7000
多云层高于500英尺
多云层高于2000英尺
成为
从 22日的 06点(UTC)到 22日的 08点(UTC)
多云层高于3000英尺

TAF: EYSA 212310Z 2200/2209 27008KT 7000 BKN005 BKN020 BECMG 2206/2208 BKN030

超过4000个机场的气象观测和天气预报(METAR&TAF报告)。

可查询的气象台以黄色和红色小点在地图上表示。

将鼠标移到小点上方,可查看气象台名称。

然后点击查看天气观测和预报。

如需切换地图:点击带黑十字的绿色按钮放大地图;点击带横线的绿色按钮缩小地图;或者点击绿色箭头查看邻近地区的地图。


METAR-TAF: